Niles Valley, Pennsylvania
Current Conditions -  °F | °C
As of 5:55 PM on Tuesday 21 Oct 2014 (Local Time) from KN38 Reporting Station
Few Clouds Few Clouds  
Wind Chill: 50°   Ceiling: Unl
Heat Index: 50°   Visibility: 10mi
Dew Point: 46°   Wind: 8mph
Humidity: 87%   Direction: 350°N
Pressure: 29.9"   Gusts: NA
Location:  41.8913°N, 77.3093°W
Report Text: KN38 212155Z AUTO 35007KT 10SM FEW040 10/08 A2990 RMK AO2
Loading
Personal Weather Stations






























Interactive Weather Map
Tropical Storm Tracking
New forecast layout! Learn more

10-Day Weather Forecast

Advertisements
Track Severe Weather on mobile